Time;durP1;ratioP1;P1;durP2;ratioP2;P2;SDS_P1;SDS_P2;PMS_P1;PMS_P2;Temp;Humidity;BMP_temperature;BMP_pressure;BME280_temperature;BME280_humidity;BME280_pressure;Samples;Min_cycle;Max_cycle;Signal;HPM_P1;HPM_P2
2022/05/28 00:00:19;;;;;;;;;1.00;1.00;;;;;22.23;38.16;101912.78;4999563;28;45722;-64
2022/05/28 00:02:45;;;;;;;;;4.00;3.50;;;;;22.22;38.00;101911.91;5001349;28;45481;-64
2022/05/28 00:05:11;;;;;;;;;3.50;3.25;;;;;22.21;38.41;101904.91;5000431;28;46450;-64
2022/05/28 00:07:37;;;;;;;;;4.00;4.00;;;;;22.21;38.21;101899.63;5001842;28;45374;-63
2022/05/28 00:10:03;;;;;;;;;4.50;4.50;;;;;22.22;38.32;101901.34;5005748;28;45306;-64
2022/05/28 00:12:29;;;;;;;;;4.00;4.00;;;;;22.20;38.09;101903.25;5018132;28;45520;-63
2022/05/28 00:14:56;;;;;;;;;4.75;3.75;;;;;22.22;38.21;101893.44;5017127;28;46237;-63
2022/05/28 00:17:21;;;;;;;;;5.75;3.50;;;;;22.21;38.20;101898.78;5013865;28;45404;-63
2022/05/28 00:19:47;;;;;;;;;5.25;4.00;;;;;22.20;38.03;101891.81;5007140;28;45339;-63
2022/05/28 00:22:12;;;;;;;;;4.50;4.00;;;;;22.19;38.59;101895.38;5003275;28;45421;-64
2022/05/28 00:24:38;;;;;;;;;4.00;4.00;;;;;22.19;38.27;101890.97;5003045;28;45307;-64
2022/05/28 00:27:03;;;;;;;;;6.00;4.75;;;;;22.19;38.28;101893.59;5002090;28;45400;-64
2022/05/28 00:29:29;;;;;;;;;4.75;4.75;;;;;22.19;38.44;101890.97;5002033;28;45344;-64
2022/05/28 00:31:54;;;;;;;;;3.00;3.00;;;;;22.17;38.32;101890.16;5002818;28;45682;-64
2022/05/28 00:34:21;;;;;;;;;5.00;5.00;;;;;22.19;38.18;101890.09;5002570;28;46173;-64
2022/05/28 00:36:47;;;;;;;;;4.00;4.00;;;;;22.17;38.11;101887.53;5005315;28;45898;-63
2022/05/28 00:39:12;;;;;;;;;4.00;4.00;;;;;22.18;38.37;101886.59;5002789;28;45337;-63
2022/05/28 00:41:37;;;;;;;;;4.25;4.25;;;;;22.17;38.42;101882.25;5003395;28;45603;-62
2022/05/28 00:44:05;;;;;;;;;4.00;4.00;;;;;22.18;38.74;101883.97;5001623;28;46113;-64
2022/05/28 00:46:32;;;;;;;;;6.25;4.25;;;;;22.16;38.25;101880.53;5015639;28;45827;-64
2022/05/28 00:49:01;;;;;;;;;5.75;4.50;;;;;22.17;38.36;101876.97;4999701;28;45405;-64
2022/05/28 00:51:29;;;;;;;;;4.25;4.25;;;;;22.17;38.45;101876.09;5000010;28;45400;-62
2022/05/28 00:54:00;;;;;;;;;7.25;3.75;;;;;22.17;38.31;101876.09;4999263;28;45501;-63
2022/05/28 00:56:27;;;;;;;;;6.00;5.00;;;;;22.16;38.17;101875.25;5000820;28;45458;-64
2022/05/28 00:58:53;;;;;;;;;5.00;4.00;;;;;22.15;38.52;101875.31;5002168;28;45416;-64
2022/05/28 01:01:25;;;;;;;;;5.50;4.00;;;;;22.13;38.44;101872.75;5020868;28;45551;-63
2022/05/28 01:04:06;;;;;;;;;7.00;5.50;;;;;22.16;38.19;101880.53;5007189;28;47211;-63
2022/05/28 01:06:43;;;;;;;;;4.00;4.00;;;;;22.16;38.61;101875.25;5000473;28;45222;-65
2022/05/28 01:09:44;;;;;;;;;4.00;4.00;;;;;22.15;38.14;101873.53;4999605;28;45415;-64
2022/05/28 01:12:31;;;;;;;;;5.50;4.00;;;;;22.15;38.22;101867.41;5000123;28;45355;-62
2022/05/28 01:15:04;;;;;;;;;5.75;4.75;;;;;22.12;38.63;101860.47;4999221;28;46588;-63
2022/05/28 01:17:49;;;;;;;;;7.25;5.00;;;;;22.13;38.64;101867.47;5000015;28;45010;-62
2022/05/28 01:20:36;;;;;;;;;4.50;4.00;;;;;22.13;38.20;101874.53;4998884;28;45260;-63
2022/05/28 01:23:31;;;;;;;;;8.75;5.00;;;;;22.12;38.63;101863.09;4999682;28;45139;-63
2022/05/28 01:26:25;;;;;;;;;4.75;4.75;;;;;22.12;38.39;101860.47;4999062;28;46654;-64
2022/05/28 01:28:57;;;;;;;;;6.50;4.00;;;;;22.11;38.33;101856.09;4999875;28;45238;-64
2022/05/28 01:31:25;;;;;;;;;4.25;4.00;;;;;22.09;38.59;101850.91;5001857;28;45214;-65
2022/05/28 01:33:52;;;;;;;;;6.75;4.00;;;;;22.10;38.12;101851.78;5002909;28;45396;-62
2022/05/28 01:36:18;;;;;;;;;4.00;4.00;;;;;22.11;38.30;101853.47;5002715;28;45510;-63
2022/05/28 01:38:46;;;;;;;;;4.50;4.50;;;;;22.11;38.28;101852.63;5005286;28;45367;-63
2022/05/28 01:41:13;;;;;;;;;5.75;4.75;;;;;22.09;38.59;101855.34;5002348;28;45388;-63
2022/05/28 01:43:42;;;;;;;;;8.25;4.75;;;;;22.10;38.55;101854.41;4999988;28;45586;-62
2022/05/28 01:46:10;;;;;;;;;6.00;4.50;;;;;22.09;38.35;101850.91;4998976;28;46684;-63
2022/05/28 01:48:37;;;;;;;;;5.00;4.00;;;;;22.08;38.10;101854.47;4999395;28;45790;-63
2022/05/28 01:51:04;;;;;;;;;6.25;4.00;;;;;22.09;38.49;101857.97;4999115;28;45326;-63
2022/05/28 01:56:15;;;;;;;;;5.00;4.50;;;;;22.09;38.28;101844.78;4999146;28;45867;-64
2022/05/28 01:58:41;;;;;;;;;4.00;4.00;;;;;22.08;38.28;101846.56;4998544;28;45266;-63
2022/05/28 02:01:08;;;;;;;;;4.00;3.50;;;;;22.09;38.34;101850.06;4999251;28;45382;-63
2022/05/28 02:03:38;;;;;;;;;4.00;4.00;;;;;22.09;38.28;101842.16;5000428;28;45431;-63
2022/05/28 02:06:04;;;;;;;;;6.50;5.25;;;;;22.09;38.55;101842.97;4998117;28;47061;-64
2022/05/28 02:08:35;;;;;;;;;5.50;5.00;;;;;22.07;38.46;101844.84;5013474;28;45338;-63
2022/05/28 02:11:09;;;;;;;;;5.50;4.50;;;;;22.07;38.27;101839.56;4998837;28;45261;-64
2022/05/28 02:13:56;;;;;;;;;4.75;4.75;;;;;22.07;38.47;101834.28;4999220;28;45413;-63
2022/05/28 02:16:52;;;;;;;;;5.75;4.25;;;;;22.06;38.31;101826.44;4998200;28;46761;-63
2022/05/28 02:19:29;;;;;;;;;7.00;4.25;;;;;22.07;38.35;101834.28;4998343;28;45356;-63
2022/05/28 02:22:03;;;;;;;;;5.75;5.25;;;;;22.05;38.53;101824.72;4998786;28;45447;-62
2022/05/28 02:24:36;;;;;;;;;5.25;5.25;;;;;22.06;38.55;101831.72;4998709;28;45442;-63
2022/05/28 02:27:08;;;;;;;;;6.25;4.25;;;;;22.06;38.23;101829.06;4997850;28;46183;-64
2022/05/28 02:29:34;;;;;;;;;7.00;5.75;;;;;22.05;38.44;101824.72;4997205;28;45817;-63
2022/05/28 02:31:59;;;;;;;;;4.25;4.25;;;;;22.04;38.31;101826.53;4997682;28;45453;-64
2022/05/28 02:34:24;;;;;;;;;8.00;5.75;;;;;22.02;38.56;101824.84;4999235;28;45270;-63
2022/05/28 02:36:50;;;;;;;;;5.75;5.50;;;;;22.04;38.50;101823.00;4998422;28;47471;-64
2022/05/28 02:39:15;;;;;;;;;6.50;4.00;;;;;22.05;38.22;101822.06;4999110;28;45475;-63
2022/05/28 02:41:41;;;;;;;;;5.00;4.75;;;;;22.04;38.03;101823.00;4998083;28;44927;-63
2022/05/28 02:44:06;;;;;;;;;5.00;5.00;;;;;22.03;38.37;101813.38;4998534;28;45404;-63
2022/05/28 02:46:32;;;;;;;;;7.25;5.00;;;;;22.03;38.39;101810.72;4996761;28;46359;-64
2022/05/28 02:48:58;;;;;;;;;8.75;5.50;;;;;22.02;38.41;101809.88;4998230;28;45310;-64
2022/05/28 02:51:24;;;;;;;;;5.75;5.00;;;;;22.02;38.37;101803.72;4997521;28;45241;-63
2022/05/28 02:53:52;;;;;;;;;7.00;5.50;;;;;22.02;38.50;101799.31;4997980;28;45291;-63
2022/05/28 02:56:19;;;;;;;;;5.00;4.00;;;;;22.02;38.23;101809.00;5006865;28;46472;-63
2022/05/28 02:58:44;;;;;;;;;5.50;5.00;;;;;22.01;38.68;101802.91;5021881;28;45791;-64
2022/05/28 03:01:16;;;;;;;;;4.25;4.25;;;;;22.03;38.25;101808.09;5021759;28;45577;-63
2022/05/28 03:03:42;;;;;;;;;8.75;7.00;;;;;22.02;38.52;101803.72;5022661;28;44888;-63
2022/05/28 03:06:08;;;;;;;;;5.00;4.50;;;;;22.01;38.40;101796.75;5019198;28;46160;-62
2022/05/28 03:08:33;;;;;;;;;5.00;5.00;;;;;22.01;38.68;101796.75;5007318;28;45371;-62
2022/05/28 03:10:58;;;;;;;;;6.00;6.00;;;;;21.99;38.40;101804.75;5007583;28;45405;-66
2022/05/28 03:13:24;;;;;;;;;5.00;3.25;;;;;21.99;38.61;101803.91;5005235;28;45429;-63
2022/05/28 03:15:49;;;;;;;;;7.00;6.00;;;;;22.00;38.59;101811.72;5006703;28;45464;-66
2022/05/28 03:18:14;;;;;;;;;6.00;4.75;;;;;21.99;38.45;101803.91;5024577;28;44765;-61
2022/05/28 03:20:40;;;;;;;;;5.00;5.00;;;;;21.98;38.63;101803.03;5012089;28;44818;-63
2022/05/28 03:23:05;;;;;;;;;5.00;5.00;;;;;21.99;38.39;101802.09;5003426;28;45329;-63
2022/05/28 03:25:30;;;;;;;;;7.75;6.00;;;;;22.00;38.66;101800.31;5001928;28;45375;-63
2022/05/28 03:27:56;;;;;;;;;6.25;6.25;;;;;21.98;38.67;101802.19;5001020;28;45491;-63
2022/05/28 03:30:21;;;;;;;;;5.25;4.50;;;;;21.98;38.59;101797.75;5001627;28;45332;-62
2022/05/28 03:32:47;;;;;;;;;4.00;4.00;;;;;21.96;38.40;101804.88;5001746;28;45356;-63
2022/05/28 03:35:12;;;;;;;;;6.25;5.75;;;;;21.97;38.74;101806.59;5002620;28;45397;-63
2022/05/28 03:37:37;;;;;;;;;7.00;5.00;;;;;21.96;38.94;101798.75;5004984;28;45353;-61
2022/05/28 03:40:04;;;;;;;;;6.00;4.00;;;;;21.96;38.57;101804.88;5005254;28;45428;-63
2022/05/28 03:42:29;;;;;;;;;5.00;5.00;;;;;21.97;38.53;101800.47;5002865;28;45472;-63
2022/05/28 03:44:54;;;;;;;;;5.00;5.00;;;;;21.97;38.65;101803.09;5001659;28;46514;-63
2022/05/28 03:47:20;;;;;;;;;5.75;5.25;;;;;21.95;38.66;101795.25;5002931;28;45432;-64
2022/05/28 03:49:46;;;;;;;;;7.50;6.50;;;;;21.96;38.83;101811.94;5001374;28;45265;-63
2022/05/28 03:52:14;;;;;;;;;6.25;5.75;;;;;21.97;38.32;101816.31;5001679;28;45396;-63
2022/05/28 03:54:43;;;;;;;;;4.25;4.25;;;;;21.96;38.90;101809.31;5001260;28;46277;-64
2022/05/28 03:57:14;;;;;;;;;6.50;6.00;;;;;21.95;38.88;101811.06;5001236;28;45345;-63
2022/05/28 03:59:39;;;;;;;;;5.00;5.00;;;;;21.94;38.79;101812.00;5000994;28;45439;-63
2022/05/28 04:02:05;;;;;;;;;6.75;5.75;;;;;21.93;38.58;101816.44;5001303;28;45305;-64
2022/05/28 04:04:31;;;;;;;;;6.00;4.25;;;;;21.94;38.60;101817.28;5000606;28;46305;-62
2022/05/28 04:06:58;;;;;;;;;8.00;6.00;;;;;21.90;38.79;101813.09;5000704;28;45581;-63
2022/05/28 04:09:23;;;;;;;;;6.25;5.00;;;;;21.91;38.81;101813.00;5001032;28;45263;-63
2022/05/28 04:11:48;;;;;;;;;8.25;6.75;;;;;21.92;38.99;101817.38;5000945;28;45486;-64
2022/05/28 04:14:14;;;;;;;;;5.75;5.75;;;;;21.92;38.96;101819.16;5006699;28;48257;-65
2022/05/28 04:16:39;;;;;;;;;6.25;5.75;;;;;21.92;38.72;101824.44;5003401;28;45264;-64
2022/05/28 04:19:04;;;;;;;;;6.75;5.75;;;;;21.90;38.56;101827.13;5003118;28;45349;-62
2022/05/28 04:21:30;;;;;;;;;6.25;6.25;;;;;21.91;38.97;101822.72;5004324;28;45328;-65
2022/05/28 04:23:55;;;;;;;;;7.25;6.50;;;;;21.90;38.90;101832.41;5006201;28;46280;-64
2022/05/28 04:26:21;;;;;;;;;6.50;6.00;;;;;21.90;38.87;101824.47;5008909;28;45167;-63
2022/05/28 04:28:46;;;;;;;;;7.00;6.00;;;;;21.89;38.63;101828.06;5011573;28;45254;-64
2022/05/28 04:31:11;;;;;;;;;5.00;5.00;;;;;21.90;38.73;101835.03;5014486;28;44941;-64
2022/05/28 04:33:37;;;;;;;;;6.00;6.00;;;;;21.90;38.73;101834.19;5022716;28;45351;-63
2022/05/28 04:36:02;;;;;;;;;5.25;5.25;;;;;21.89;38.97;101841.25;5018580;28;45426;-64
2022/05/28 04:38:28;;;;;;;;;5.25;5.25;;;;;21.90;38.84;101839.47;5016406;28;45322;-63
2022/05/28 04:40:53;;;;;;;;;5.75;4.50;;;;;21.87;38.75;101837.84;5017040;28;45277;-64
2022/05/28 04:43:18;;;;;;;;;8.00;7.00;;;;;21.86;39.04;101835.25;5013372;28;45302;-62
2022/05/28 04:45:45;;;;;;;;;7.00;7.00;;;;;21.87;38.85;101843.13;5004649;28;45360;-64
2022/05/28 04:48:11;;;;;;;;;5.75;4.25;;;;;21.88;38.94;101842.16;5002862;28;45429;-63
2022/05/28 04:50:37;;;;;;;;;6.50;5.00;;;;;21.88;39.00;101844.81;5012346;28;44946;-64
2022/05/28 04:53:02;;;;;;;;;7.25;6.00;;;;;21.86;38.80;101835.25;5010118;28;46992;-63
2022/05/28 04:55:27;;;;;;;;;5.50;5.50;;;;;21.88;39.18;101838.69;5006874;28;45197;-62
2022/05/28 04:57:53;;;;;;;;;9.25;6.50;;;;;21.87;38.92;101848.41;5002727;28;45484;-63
2022/05/28 05:00:21;;;;;;;;;6.75;5.00;;;;;21.88;38.87;101844.81;5001880;28;45245;-63
2022/05/28 05:02:47;;;;;;;;;6.00;4.00;;;;;21.84;39.23;101837.97;5001281;28;45693;-62
2022/05/28 05:05:12;;;;;;;;;10.00;6.00;;;;;21.85;39.05;101844.09;5001420;28;45159;-64
2022/05/28 05:07:38;;;;;;;;;7.00;6.00;;;;;21.87;39.04;101844.88;5010133;28;45135;-63
2022/05/28 05:10:04;;;;;;;;;8.00;6.75;;;;;21.87;39.03;101850.16;5013548;28;45376;-62
2022/05/28 05:12:29;;;;;;;;;6.00;6.00;;;;;21.83;38.80;101846.81;5003975;28;45623;-62
2022/05/28 05:14:54;;;;;;;;;8.00;4.00;;;;;21.84;39.17;101835.34;5003312;28;45451;-62
2022/05/28 05:17:20;;;;;;;;;5.50;5.00;;;;;21.86;39.08;101844.03;5002795;28;45416;-62
2022/05/28 05:19:45;;;;;;;;;6.25;5.50;;;;;21.87;39.24;101847.53;5001082;28;45313;-62
2022/05/28 05:22:10;;;;;;;;;7.75;5.25;;;;;21.86;39.16;101851.97;5000867;28;45435;-63
2022/05/28 05:24:36;;;;;;;;;8.00;7.00;;;;;21.85;39.28;101852.00;5001306;28;45472;-63
2022/05/28 05:27:02;;;;;;;;;5.50;4.00;;;;;21.87;39.17;101848.41;5001201;28;45364;-63
2022/05/28 05:29:28;;;;;;;;;9.00;6.25;;;;;21.83;38.98;101841.53;5001822;28;45338;-64
2022/05/28 05:31:53;;;;;;;;;5.00;5.00;;;;;21.83;39.24;101844.19;5002069;28;48080;-63
2022/05/28 05:34:18;;;;;;;;;7.75;7.25;;;;;21.85;38.95;101836.19;5003628;28;45250;-63
2022/05/28 05:36:44;;;;;;;;;3.25;3.00;;;;;21.86;39.04;101843.16;5009672;28;45313;-63
2022/05/28 05:39:09;;;;;;;;;7.00;7.00;;;;;21.86;39.12;101840.53;5006499;28;45266;-63
2022/05/28 05:41:42;;;;;;;;;8.50;6.00;;;;;21.85;39.19;101837.06;5004385;28;46495;-63
2022/05/28 05:44:08;;;;;;;;;5.50;5.00;;;;;21.83;39.12;101838.06;4999723;28;45818;-63
2022/05/28 05:46:33;;;;;;;;;6.00;4.00;;;;;21.85;38.92;101838.81;5000761;28;45229;-63
2022/05/28 05:48:59;;;;;;;;;6.75;6.75;;;;;21.84;39.15;101837.97;5000570;28;45282;-63
2022/05/28 05:51:25;;;;;;;;;4.75;4.75;;;;;21.85;39.30;101838.81;4999188;28;46157;-63
2022/05/28 05:53:50;;;;;;;;;6.75;6.50;;;;;21.84;39.22;101837.97;5003003;28;45343;-63
2022/05/28 05:56:16;;;;;;;;;7.00;5.25;;;;;21.84;39.00;101837.97;5002654;28;45364;-62
2022/05/28 05:58:42;;;;;;;;;6.00;6.00;;;;;21.85;39.35;101836.19;5001833;28;45748;-63
2022/05/28 06:01:08;;;;;;;;;8.50;7.00;;;;;21.85;38.76;101839.69;4999751;28;45224;-64
2022/05/28 06:03:35;;;;;;;;;7.00;5.50;;;;;21.86;39.17;101835.25;4998890;28;45395;-62
2022/05/28 06:06:04;;;;;;;;;6.00;6.00;;;;;21.87;39.20;101842.25;4998951;28;45349;-62
2022/05/28 06:08:30;;;;;;;;;7.50;6.00;;;;;21.85;39.11;101841.47;4998410;28;45226;-63
2022/05/28 06:10:55;;;;;;;;;7.25;6.00;;;;;21.86;39.03;101841.41;4997970;28;45373;-64
2022/05/28 06:13:21;;;;;;;;;9.25;5.50;;;;;21.86;39.17;101846.69;4998837;28;45342;-63
2022/05/28 06:15:47;;;;;;;;;7.00;7.00;;;;;21.87;38.89;101851.03;4998974;28;45853;-63
2022/05/28 06:18:14;;;;;;;;;8.00;7.00;;;;;21.88;38.88;101846.59;4998713;28;45259;-63
2022/05/28 06:20:39;;;;;;;;;6.00;5.25;;;;;21.87;38.91;101848.41;4996870;28;48007;-63
2022/05/28 06:23:05;;;;;;;;;6.00;6.00;;;;;21.88;38.96;101852.72;4998296;28;45460;-63
2022/05/28 06:25:30;;;;;;;;;6.25;6.25;;;;;21.85;38.89;101844.09;4998408;28;45397;-65
2022/05/28 06:27:57;;;;;;;;;6.75;6.00;;;;;21.87;38.96;101845.75;4998218;28;45413;-63
2022/05/28 06:30:22;;;;;;;;;5.00;5.00;;;;;21.88;39.25;101854.53;4998678;28;46659;-63
2022/05/28 06:32:48;;;;;;;;;4.75;4.75;;;;;21.88;38.96;101847.44;5000067;28;45427;-63
2022/05/28 06:35:13;;;;;;;;;6.00;6.00;;;;;21.87;38.98;101843.13;5002596;28;45399;-64
2022/05/28 06:37:38;;;;;;;;;7.00;7.00;;;;;21.88;39.28;101844.81;5002647;28;45266;-63
2022/05/28 06:40:04;;;;;;;;;6.25;6.25;;;;;21.89;39.15;101851.81;5002660;28;46526;-63
2022/05/28 06:42:30;;;;;;;;;7.50;6.25;;;;;21.90;39.14;101852.69;5001669;28;45870;-63
2022/05/28 06:44:56;;;;;;;;;6.00;6.00;;;;;21.89;39.09;101851.81;5001014;28;45270;-63
2022/05/28 06:47:22;;;;;;;;;5.00;5.00;;;;;21.90;39.10;101848.25;5001734;28;45408;-63
2022/05/28 06:51:01;;;;;;;;;7.75;6.00;;;;;21.91;39.30;101851.75;5001365;28;46278;-63
2022/05/28 06:52:33;;;;;;;;;9.25;6.00;;;;;21.91;39.22;101855.22;5001688;28;45785;-63
2022/05/28 06:54:59;;;;;;;;;9.00;6.25;;;;;21.92;38.88;101853.47;5001146;28;45345;-62
2022/05/28 06:57:24;;;;;;;;;9.00;7.00;;;;;21.93;38.99;101853.38;5002204;28;45614;-62
2022/05/28 06:59:49;;;;;;;;;7.25;5.00;;;;;21.92;39.03;101837.63;5003312;28;45983;-63
2022/05/28 07:02:15;;;;;;;;;7.00;5.75;;;;;21.92;39.17;101849.03;5004456;28;45386;-63
2022/05/28 07:04:40;;;;;;;;;9.25;7.00;;;;;21.90;38.83;101840.31;5005098;28;45269;-63
2022/05/28 07:07:05;;;;;;;;;7.00;7.00;;;;;21.91;39.20;101847.31;5003914;28;45392;-62
2022/05/28 07:09:31;;;;;;;;;9.00;6.75;;;;;21.93;39.07;101840.19;5000668;28;50328;-63
2022/05/28 07:11:56;;;;;;;;;7.00;6.50;;;;;21.89;39.28;101838.59;5001243;28;45403;-62
2022/05/28 07:14:22;;;;;;;;;7.75;7.75;;;;;21.92;39.24;101841.13;5001860;28;45564;-62
2022/05/28 07:16:47;;;;;;;;;6.00;5.50;;;;;21.95;39.39;101842.75;5001499;28;45553;-62
2022/05/28 07:19:13;;;;;;;;;7.50;5.25;;;;;21.97;39.16;101840.06;5000933;28;46370;-62
2022/05/28 07:21:38;;;;;;;;;10.75;6.25;;;;;21.96;39.20;101830.44;5000879;28;45274;-59
2022/05/28 07:24:04;;;;;;;;;7.50;7.25;;;;;21.97;39.18;101840.06;5000774;28;45179;-58
2022/05/28 07:26:30;;;;;;;;;8.25;7.50;;;;;21.98;39.45;101833.84;5000415;28;45617;-60
2022/05/28 07:28:55;;;;;;;;;6.50;6.50;;;;;21.98;39.48;101834.69;5000167;28;46091;-58
2022/05/28 07:31:21;;;;;;;;;5.50;5.50;;;;;21.97;39.36;101827.72;4999835;28;45433;-59
2022/05/28 07:33:48;;;;;;;;;8.50;7.50;;;;;21.97;39.27;101832.13;5001148;28;45356;-60
2022/05/28 07:36:18;;;;;;;;;8.00;6.00;;;;;21.98;39.45;101829.41;5002730;28;45310;-59
2022/05/28 07:38:43;;;;;;;;;7.75;7.00;;;;;21.97;39.66;101826.88;5017739;28;47379;-58
2022/05/28 07:41:12;;;;;;;;;7.00;5.75;;;;;21.96;39.86;101822.50;5002682;28;45346;-58
2022/05/28 07:43:38;;;;;;;;;6.25;6.25;;;;;21.96;39.59;101819.88;5002081;28;45492;-59
2022/05/28 07:46:14;;;;;;;;;5.50;5.00;;;;;21.95;39.44;101820.78;5001155;28;45388;-58
2022/05/28 07:48:40;;;;;;;;;1.00;1.00;;;;;21.96;39.84;101822.50;5001795;28;45547;-57
2022/05/28 07:51:05;;;;;;;;;7.50;6.75;;;;;21.95;39.64;101819.00;5001164;28;45366;-57
2022/05/28 07:53:30;;;;;;;;;10.50;7.50;;;;;21.98;39.37;101828.59;5003379;28;45317;-69
2022/05/28 07:55:58;;;;;;;;;7.00;6.00;;;;;21.99;39.37;101828.50;5014858;28;45538;-58
2022/05/28 07:58:23;;;;;;;;;6.00;4.25;;;;;21.99;39.18;101817.94;5014675;28;45141;-62
2022/05/28 08:00:49;;;;;;;;;10.00;7.25;;;;;21.99;39.70;101815.28;5010386;28;58055;-61
2022/05/28 08:03:16;;;;;;;;;6.75;6.00;;;;;21.98;39.46;101812.75;5013641;28;45816;-60
2022/05/28 08:05:44;;;;;;;;;7.50;7.00;;;;;22.00;39.53;101821.41;5013966;28;45513;-61
2022/05/28 08:08:11;;;;;;;;;6.50;5.75;;;;;22.00;39.36;101810.88;5006626;28;46669;-59
2022/05/28 08:10:37;;;;;;;;;9.25;8.25;;;;;21.98;39.58;101815.38;5007606;28;45463;-59
2022/05/28 08:13:08;;;;;;;;;14.25;9.75;;;;;21.92;39.74;101809.44;5006451;28;45325;-60
2022/05/28 08:15:36;;;;;;;;;7.00;6.00;;;;;21.88;39.47;101809.66;5003451;28;45324;-56
2022/05/28 08:18:02;;;;;;;;;12.00;9.00;;;;;21.84;39.44;101822.13;5000691;28;45331;-56
2022/05/28 08:23:13;;;;;;;;;11.00;8.50;;;;;21.74;39.53;101815.56;5001423;28;45347;-54
2022/05/28 08:25:40;;;;;;;;;10.50;9.50;;;;;21.72;39.57;101812.13;5000528;28;45308;-57
2022/05/28 08:28:10;;;;;;;;;12.00;9.00;;;;;21.69;39.76;101815.78;5001146;28;45428;-55
2022/05/28 08:30:38;;;;;;;;;10.75;9.50;;;;;21.63;40.19;101810.75;5001479;28;45770;-55
2022/05/28 08:33:04;;;;;;;;;11.00;8.00;;;;;21.65;39.85;101811.56;5001159;28;45564;-57
2022/05/28 08:35:29;;;;;;;;;10.50;9.00;;;;;21.62;39.92;101803.75;5003666;28;45591;-53
2022/05/28 08:37:54;;;;;;;;;12.00;9.00;;;;;21.63;40.18;101818.66;5020328;28;48474;-54
2022/05/28 08:40:20;;;;;;;;;5.50;5.50;;;;;21.65;39.86;101810.72;5004848;28;46109;-56
2022/05/28 08:42:46;;;;;;;;;9.25;7.75;;;;;21.62;40.11;101807.28;5004387;28;45399;-56
2022/05/28 08:45:13;;;;;;;;;9.00;8.75;;;;;21.64;40.17;101814.28;5006966;28;45297;-56
2022/05/28 08:47:42;;;;;;;;;13.00;9.50;;;;;21.62;40.17;101816.94;5007071;28;46111;-56
2022/05/28 08:50:10;;;;;;;;;7.25;5.00;;;;;21.58;39.85;101810.94;5008112;28;45809;-56
2022/05/28 08:53:11;;;;;;;;;13.00;10.25;;;;;21.55;39.78;101811.06;5011008;28;45265;-55
2022/05/28 08:55:41;;;;;;;;;10.75;10.25;;;;;21.52;40.00;101805.94;5001371;28;45333;-55
2022/05/28 08:58:14;;;;;;;;;12.00;8.75;;;;;21.50;39.61;101797.22;5008261;28;46543;-54
2022/05/28 09:00:47;;;;;;;;;12.75;9.50;;;;;21.51;39.79;101798.06;5005204;28;45265;-56
2022/05/28 09:03:20;;;;;;;;;8.75;8.00;;;;;21.51;39.82;101798.94;5008289;28;45319;-56
2022/05/28 09:05:59;;;;;;;;;9.00;7.75;;;;;21.50;39.59;101791.97;5008980;28;45368;-55
2022/05/28 09:08:38;;;;;;;;;8.25;8.25;;;;;21.46;39.90;101785.09;5008371;28;45302;-56
2022/05/28 09:11:11;;;;;;;;;8.75;7.50;;;;;21.50;39.79;101786.69;5007289;28;45522;-56
2022/05/28 09:13:43;;;;;;;;;11.50;9.00;;;;;21.53;39.49;101788.31;5005356;28;45744;-56
2022/05/28 09:16:24;;;;;;;;;11.75;7.25;;;;;21.54;39.69;101783.00;5005432;28;45234;-56
2022/05/28 09:18:52;;;;;;;;;9.00;7.50;;;;;21.56;39.47;101781.13;5005010;28;45539;-55
2022/05/28 09:21:18;;;;;;;;;8.00;7.00;;;;;21.60;39.67;101788.00;5007239;28;45371;-55
2022/05/28 09:23:58;;;;;;;;;10.50;8.00;;;;;21.59;39.57;101773.09;5013763;28;45362;-55
2022/05/28 09:26:53;;;;;;;;;6.00;6.00;;;;;21.66;39.53;101778.13;5017363;28;44815;-55
2022/05/28 09:29:36;;;;;;;;;7.75;6.25;;;;;21.68;39.76;101779.75;4991843;28;45477;-56
2022/05/28 09:32:11;;;;;;;;;8.75;8.00;;;;;21.70;39.27;101763.84;5004473;28;45260;-55
2022/05/28 09:35:08;;;;;;;;;11.25;8.00;;;;;21.70;39.35;101770.00;5003948;28;45242;-55
2022/05/28 09:37:44;;;;;;;;;7.75;7.25;;;;;21.71;39.20;101769.06;5004815;28;45338;-54
2022/05/28 09:40:28;;;;;;;;;8.00;7.25;;;;;21.72;39.39;101772.56;4998917;28;45249;-56
2022/05/28 09:43:12;;;;;;;;;10.75;9.00;;;;;21.75;38.94;101767.16;5000445;28;45870;-57
2022/05/28 09:45:52;;;;;;;;;9.00;7.00;;;;;21.75;39.01;101761.88;5004395;28;45367;-55
2022/05/28 09:48:27;;;;;;;;;12.00;11.25;;;;;21.73;38.83;101756.66;5004090;28;45419;-56
2022/05/28 09:50:52;;;;;;;;;10.25;8.00;;;;;21.72;38.78;101754.09;5000886;28;46365;-55
2022/05/28 09:56:22;;;;;;;;;8.00;7.00;;;;;21.72;39.02;101743.53;5001135;28;45262;-55
2022/05/28 09:58:47;;;;;;;;;8.25;7.75;;;;;21.75;38.69;101743.41;5002215;28;45445;-55
2022/05/28 10:01:21;;;;;;;;;7.25;6.00;;;;;21.75;38.78;101732.84;5014196;28;45475;-53
2022/05/28 10:06:33;;;;;;;;;7.50;7.00;;;;;21.84;38.93;101736.81;5013221;28;45270;-56
2022/05/28 10:09:12;;;;;;;;;7.50;7.00;;;;;21.83;38.78;101725.41;5010167;28;45207;-55
2022/05/28 10:12:11;;;;;;;;;11.00;7.25;;;;;21.84;38.83;101731.53;5003524;28;46634;-55
2022/05/28 10:14:36;;;;;;;;;7.75;7.75;;;;;21.84;38.75;101729.78;5004249;28;45353;-54
2022/05/28 10:17:03;;;;;;;;;7.50;6.00;;;;;21.84;38.85;101721.84;5005823;28;45400;-56
2022/05/28 10:19:39;;;;;;;;;6.00;6.00;;;;;21.86;38.62;101730.56;5015379;28;44818;-54
2022/05/28 10:22:11;;;;;;;;;11.50;8.00;;;;;21.85;38.27;101723.56;5018027;28;45350;-57
2022/05/28 10:24:44;;;;;;;;;7.50;6.00;;;;;21.86;37.73;101727.94;5014797;28;45105;-55
2022/05/28 10:27:22;;;;;;;;;6.25;6.25;;;;;21.84;37.98;101719.22;5015207;28;44691;-59
2022/05/28 10:29:49;;;;;;;;;8.00;6.00;;;;;21.83;38.13;101728.06;5013973;28;44873;-55
2022/05/28 10:32:29;;;;;;;;;7.50;7.50;;;;;21.81;38.14;101719.34;5012537;28;46303;-53
2022/05/28 10:35:00;;;;;;;;;9.50;7.50;;;;;21.81;37.71;101727.28;5013991;28;45402;-54
2022/05/28 10:37:26;;;;;;;;;10.00;8.00;;;;;21.80;37.97;101719.44;5013640;28;45381;-57
2022/05/28 10:40:20;;;;;;;;;7.75;7.00;;;;;21.81;37.70;101724.63;5014091;28;45340;-56
2022/05/28 10:42:47;;;;;;;;;6.50;6.00;;;;;21.79;37.72;101713.28;5017559;28;45488;-57
2022/05/28 10:45:17;;;;;;;;;5.75;5.50;;;;;21.82;38.20;101712.31;5015452;28;45162;-56
2022/05/28 10:47:57;;;;;;;;;8.00;5.75;;;;;21.82;38.05;101710.50;5016824;28;44737;-57
2022/05/28 10:50:45;;;;;;;;;8.00;5.00;;;;;21.82;37.69;101714.94;5015816;28;45496;-57
2022/05/28 10:53:20;;;;;;;;;5.00;5.00;;;;;21.82;37.95;101713.16;5014197;28;45424;-57
2022/05/28 10:56:11;;;;;;;;;4.50;4.50;;;;;21.81;37.94;101703.53;5015616;28;45169;-56
2022/05/28 10:59:21;;;;;;;;;7.75;4.50;;;;;21.82;37.30;101704.41;5003577;28;45161;-57
2022/05/28 11:02:23;;;;;;;;;7.00;6.00;;;;;21.81;37.71;101706.16;4979286;28;45513;-56
2022/05/28 11:05:14;;;;;;;;;5.00;4.50;;;;;21.81;37.44;101694.75;4978476;28;45450;-57
2022/05/28 11:08:12;;;;;;;;;5.75;4.25;;;;;21.81;37.24;101690.31;4999063;28;45368;-56
2022/05/28 11:10:43;;;;;;;;;4.50;4.25;;;;;21.83;37.41;101687.63;5001342;28;45421;-59
2022/05/28 11:13:27;;;;;;;;;6.00;5.00;;;;;21.84;37.65;101687.56;5001601;28;45547;-57
2022/05/28 11:16:24;;;;;;;;;5.00;5.00;;;;;21.85;37.20;101689.25;4999057;28;46480;-57
2022/05/28 11:18:52;;;;;;;;;5.75;4.75;;;;;21.86;37.26;101685.69;5001743;28;45326;-57
2022/05/28 11:21:32;;;;;;;;;7.00;5.25;;;;;21.86;37.06;101682.19;5003313;28;45345;-57
2022/05/28 11:24:48;;;;;;;;;7.00;5.00;;;;;21.86;37.35;101674.28;5005552;28;45320;-58
2022/05/28 11:27:50;;;;;;;;;5.00;5.00;;;;;21.88;37.10;101675.91;4995044;28;45589;-55
2022/05/28 11:30:39;;;;;;;;;5.00;5.00;;;;;21.89;37.39;101682.06;4994535;28;45739;-59
2022/05/28 11:33:26;;;;;;;;;6.50;5.75;;;;;21.91;37.19;101678.41;5001938;28;45370;-56
2022/05/28 11:35:56;;;;;;;;;5.00;4.50;;;;;21.92;37.15;101672.19;5005342;28;45471;-57
2022/05/28 11:38:52;;;;;;;;;4.00;4.00;;;;;21.91;37.52;101665.22;5004904;28;46485;-57
2022/05/28 11:41:47;;;;;;;;;5.00;3.75;;;;;21.94;37.28;101658.91;5001670;28;45459;-57
2022/05/28 11:44:26;;;;;;;;;5.50;5.50;;;;;21.97;36.98;101657.94;5000752;28;45222;-56
2022/05/28 11:47:01;;;;;;;;;4.00;4.00;;;;;21.98;37.60;101654.38;5001068;28;45404;-56
2022/05/28 11:52:33;;;;;;;;;5.00;4.00;;;;;22.00;37.39;101642.78;5000557;28;45435;-56